createdAt,value
2018-05-07T00:03:29.811Z,100153.88
2018-05-07T00:09:35.007Z,100159.56
2018-05-07T00:15:39.440Z,100162.41
2018-05-07T00:21:43.833Z,100158.59
2018-05-07T00:27:48.224Z,100158.00
2018-05-07T00:33:52.815Z,100160.94
2018-05-07T00:39:57.358Z,100156.83
2018-05-07T00:46:01.739Z,100158.59
2018-05-07T00:52:06.150Z,100162.63
2018-05-07T00:58:10.539Z,100162.16
2018-05-07T01:04:15.071Z,100168.72
2018-05-07T01:10:20.781Z,100171.09
2018-05-07T01:16:25.204Z,100184.34
2018-05-07T01:22:29.572Z,100189.30
2018-05-07T01:28:33.939Z,100178.23
2018-05-07T01:34:38.489Z,100178.90
2018-05-07T01:40:42.860Z,100191.97
2018-05-07T01:46:47.213Z,100193.48
2018-05-07T01:52:52.523Z,100186.34
2018-05-07T01:58:56.986Z,100177.53
2018-05-07T02:05:01.439Z,100183.13
2018-05-07T02:11:05.804Z,100179.47
2018-05-07T02:17:10.176Z,100180.94
2018-05-07T02:23:14.551Z,100178.76
2018-05-07T02:29:18.923Z,100174.72
2018-05-07T02:35:23.392Z,100161.19
2018-05-07T02:41:27.755Z,100155.20
2018-05-07T02:47:32.161Z,100152.92
2018-05-07T02:53:36.534Z,100150.37
2018-05-07T02:59:40.900Z,100144.41
2018-05-07T03:05:45.270Z,100137.43
2018-05-07T03:11:49.877Z,100143.03
2018-05-07T03:17:54.289Z,100135.49
2018-05-07T03:23:58.751Z,100132.31
2018-05-07T03:30:03.115Z,100129.11
2018-05-07T03:36:07.467Z,100128.42
2018-05-07T03:42:11.866Z,100129.58
2018-05-07T03:48:16.376Z,100124.52
2018-05-07T03:54:21.070Z,100130.53
2018-05-07T04:00:25.508Z,100125.63
2018-05-07T04:06:29.950Z,100123.48
2018-05-07T04:12:35.231Z,100112.80
2018-05-07T04:25:28.895Z,100109.14
2018-05-07T04:31:33.314Z,100110.34
2018-05-07T04:37:37.715Z,100115.28
2018-05-07T04:43:42.106Z,100114.04
2018-05-07T04:49:47.269Z,100120.12
2018-05-07T04:55:51.794Z,100118.34
2018-05-07T05:01:56.955Z,100118.25
2018-05-07T05:08:01.343Z,100118.16
2018-05-07T05:14:05.803Z,100119.45
2018-05-07T05:20:10.189Z,100124.64
2018-05-07T05:26:14.667Z,100126.05
2018-05-07T05:32:19.230Z,100120.94
2018-05-07T05:38:24.629Z,100127.97
2018-05-07T05:44:29.043Z,100127.11
2018-05-07T05:50:34.206Z,100121.52
2018-05-07T05:56:38.616Z,100129.95
2018-05-07T06:02:43.866Z,100132.44
2018-05-07T06:08:48.269Z,100121.89
2018-05-07T06:14:53.585Z,100122.63
2018-05-07T06:20:57.951Z,100117.41
2018-05-07T06:27:03.135Z,100117.84
2018-05-07T06:33:07.528Z,100116.70
2018-05-07T06:39:12.467Z,100116.10
2018-05-07T06:45:17.045Z,100113.27
2018-05-07T06:51:21.710Z,100113.06
2018-05-07T06:57:26.118Z,100103.86
2018-05-07T07:03:30.528Z,100114.67
2018-05-07T07:09:34.873Z,100103.28
2018-05-07T07:15:39.251Z,100099.45
2018-05-07T07:21:43.647Z,100091.22
2018-05-07T07:27:48.015Z,100086.98
2018-05-07T07:33:52.721Z,100084.70
2018-05-07T07:39:57.058Z,100087.02
2018-05-07T07:46:01.504Z,100077.72
2018-05-07T07:52:05.914Z,100078.03
2018-05-07T07:58:10.359Z,100077.95
2018-05-07T08:04:14.818Z,100076.24
2018-05-07T08:10:19.222Z,100074.00
2018-05-07T08:16:23.707Z,100063.22
2018-05-07T08:22:28.089Z,100061.80
2018-05-07T08:28:32.490Z,100058.61
2018-05-07T08:34:36.853Z,100047.28
2018-05-07T08:40:41.219Z,100042.40
2018-05-07T08:46:45.650Z,100039.64
2018-05-07T08:52:50.918Z,100034.98
2018-05-07T08:58:55.345Z,100031.09
2018-05-07T09:04:59.810Z,100031.27
2018-05-07T09:11:04.176Z,100028.03
2018-05-07T09:17:08.591Z,100026.84
2018-05-07T09:23:12.974Z,100016.52
2018-05-07T09:29:17.344Z,100005.14
2018-05-07T09:35:22.113Z,99990.45
2018-05-07T09:41:26.629Z,99996.13
2018-05-07T09:47:31.060Z,99987.95
2018-05-07T09:53:35.418Z,99978.16
2018-05-07T09:59:39.779Z,99967.08
2018-05-07T10:05:45.028Z,99953.91
2018-05-07T10:11:49.482Z,99951.38
2018-05-07T10:17:53.961Z,99947.85
2018-05-07T10:23:58.313Z,99942.20
2018-05-07T10:30:02.663Z,99935.92
2018-05-07T10:36:07.026Z,99933.03
2018-05-07T10:42:11.382Z,99932.39
2018-05-07T10:48:15.736Z,99922.77
2018-05-07T10:54:20.308Z,99915.84
2018-05-07T11:00:24.910Z,99906.17
2018-05-07T11:06:29.334Z,99893.23
2018-05-07T11:12:34.541Z,99887.47
2018-05-07T11:18:38.893Z,99883.56
2018-05-07T11:24:44.021Z,99886.92
2018-05-07T11:30:48.490Z,99875.61
2018-05-07T11:36:52.865Z,99867.76
2018-05-07T11:42:57.238Z,99865.45
2018-05-07T11:49:01.637Z,99852.76
2018-05-07T11:55:05.983Z,99851.67
2018-05-07T12:01:10.352Z,99846.13
2018-05-07T12:07:15.540Z,99841.08
2018-05-07T12:13:20.194Z,99836.61
2018-05-07T12:19:24.678Z,99837.86
2018-05-07T12:25:29.036Z,99826.37
2018-05-07T12:31:33.496Z,99820.88
2018-05-07T12:37:37.766Z,99824.33
2018-05-07T12:43:42.229Z,99814.44
2018-05-07T12:49:46.539Z,99813.28
2018-05-07T12:55:51.320Z,99790.16
2018-05-07T13:01:55.743Z,99787.33
2018-05-07T13:08:00.092Z,99786.41
2018-05-07T13:14:04.450Z,99776.91
2018-05-07T13:20:08.803Z,99763.97
2018-05-07T13:26:13.155Z,99758.52
2018-05-07T13:32:17.503Z,99752.69
2018-05-07T13:38:22.739Z,99739.28
2018-05-07T13:44:27.145Z,99737.06
2018-05-07T13:50:31.504Z,99723.50
2018-05-07T13:56:35.854Z,99716.33
2018-05-07T14:02:40.237Z,99714.48
2018-05-07T14:08:44.595Z,99703.63
2018-05-07T14:14:49.734Z,99708.20
2018-05-07T14:20:54.310Z,99705.48
2018-05-07T14:26:59.525Z,99705.84
2018-05-07T14:33:03.883Z,99690.32
2018-05-07T14:39:08.233Z,99689.31
2018-05-07T14:45:12.634Z,99683.94
2018-05-07T14:51:16.991Z,99673.63
2018-05-07T14:57:21.804Z,99671.48
2018-05-07T15:03:26.166Z,99675.13
2018-05-07T15:09:30.530Z,99670.97
2018-05-07T15:15:34.991Z,99661.24
2018-05-07T15:21:39.362Z,99662.06
2018-05-07T15:27:43.708Z,99655.77
2018-05-07T15:33:48.052Z,99649.53
2018-05-07T15:39:52.571Z,99653.98
2018-05-07T15:45:56.961Z,99649.25
2018-05-07T15:52:01.316Z,99641.69
2018-05-07T15:58:05.681Z,99637.73
2018-05-07T16:04:10.068Z,99632.45
2018-05-07T16:10:14.425Z,99630.38
2018-05-07T16:16:19.584Z,99622.79
2018-05-07T16:22:24.021Z,99617.36
2018-05-07T16:28:28.381Z,99613.39
2018-05-07T16:34:32.756Z,99615.98
2018-05-07T16:40:37.108Z,99610.91
2018-05-07T16:46:41.506Z,99603.31
2018-05-07T16:52:45.866Z,99599.87
2018-05-07T16:58:50.382Z,99600.66
2018-05-07T17:04:54.777Z,99600.29
2018-05-07T17:10:59.144Z,99602.45
2018-05-07T17:17:03.501Z,99602.65
2018-05-07T17:23:07.886Z,99597.35
2018-05-07T17:29:12.257Z,99601.92
2018-05-07T17:35:16.698Z,99592.39
2018-05-07T17:41:21.929Z,99602.59
2018-05-07T17:47:43.999Z,99601.89
2018-05-07T17:53:48.366Z,99610.69
2018-05-07T17:59:53.068Z,99610.16
2018-05-07T18:05:57.475Z,99612.16
2018-05-07T18:12:01.910Z,99612.52
2018-05-07T18:18:06.261Z,99607.66
2018-05-07T18:24:11.382Z,99611.56
2018-05-07T18:30:15.768Z,99611.22
2018-05-07T18:36:20.545Z,99612.16
2018-05-07T18:42:25.010Z,99612.80
2018-05-07T18:48:29.369Z,99610.95
2018-05-07T18:54:34.491Z,99618.27
2018-05-07T19:00:38.879Z,99619.52
2018-05-07T19:06:43.237Z,99615.77
2018-05-07T19:12:47.689Z,99619.20
2018-05-07T19:18:52.163Z,99625.47
2018-05-07T19:24:57.362Z,99625.28
2018-05-07T19:31:01.816Z,99630.91
2018-05-07T19:37:06.173Z,99631.27
2018-05-07T19:43:10.522Z,99634.83
2018-05-07T19:49:14.968Z,99632.12
2018-05-07T19:55:21.175Z,99627.30
2018-05-07T20:01:25.623Z,99623.48
2018-05-07T20:07:30.016Z,99621.44
2018-05-07T20:13:34.383Z,99625.02
2018-05-07T20:19:38.842Z,99626.20
2018-05-07T20:25:43.216Z,99618.95
2018-05-07T20:31:47.637Z,99617.25
2018-05-07T20:37:52.092Z,99616.39
2018-05-07T20:43:56.509Z,99613.66
2018-05-07T20:50:00.910Z,99618.95
2018-05-07T20:56:06.103Z,99620.55
2018-05-07T21:02:10.466Z,99620.86
2018-05-07T21:08:14.864Z,99618.38
2018-05-07T21:14:19.288Z,99607.80
2018-05-07T21:20:23.861Z,99603.72
2018-05-07T21:26:29.025Z,99603.17
2018-05-07T21:32:33.403Z,99607.14
2018-05-07T21:38:37.776Z,99606.59
2018-05-07T21:44:42.134Z,99612.63
2018-05-07T21:50:46.536Z,99604.75
2018-05-07T21:56:51.855Z,99605.00
2018-05-07T22:02:56.297Z,99596.96
2018-05-07T22:09:00.796Z,99599.33
2018-05-07T22:15:05.190Z,99603.36
2018-05-07T22:21:09.555Z,99594.04
2018-05-07T22:27:14.692Z,99594.47
2018-05-07T22:33:20.006Z,99599.25
2018-05-07T22:39:25.321Z,99600.99
2018-05-07T22:45:30.471Z,99595.55
2018-05-07T22:51:34.861Z,99594.92
2018-05-07T22:57:39.232Z,99584.04
2018-05-07T23:03:44.425Z,99589.44
2018-05-07T23:09:48.784Z,99583.64
2018-05-07T23:15:53.319Z,99582.23
2018-05-07T23:21:58.480Z,99586.39
2018-05-07T23:28:02.867Z,99583.56
2018-05-07T23:34:07.255Z,99586.62
2018-05-07T23:40:11.616Z,99574.88
2018-05-07T23:46:15.992Z,99568.95
2018-05-07T23:52:20.681Z,99569.20
2018-05-07T23:58:25.147Z,99566.11
